createdAt,value
2019-05-03T00:01:43.093Z,11.00
2019-05-03T00:04:15.031Z,11.20
2019-05-03T00:06:45.249Z,11.10
2019-05-03T00:09:17.340Z,11.00
2019-05-03T00:11:47.627Z,10.80
2019-05-03T00:14:17.927Z,10.80
2019-05-03T00:16:49.800Z,10.90
2019-05-03T00:19:21.844Z,10.90
2019-05-03T00:21:52.618Z,10.60
2019-05-03T00:24:42.806Z,10.60
2019-05-03T00:27:13.357Z,10.60
2019-05-03T00:29:43.631Z,10.50
2019-05-03T00:32:13.892Z,10.50
2019-05-03T00:34:57.739Z,10.40
2019-05-03T00:37:29.679Z,10.50
2019-05-03T00:40:27.052Z,10.60
2019-05-03T00:42:57.965Z,10.50
2019-05-03T00:45:28.242Z,10.50
2019-05-03T00:47:58.504Z,10.60
2019-05-03T00:50:28.783Z,10.40
2019-05-03T00:52:59.015Z,10.60
2019-05-03T00:55:29.227Z,10.70
2019-05-03T00:57:59.474Z,10.70
2019-05-03T01:00:29.691Z,10.70
2019-05-03T01:03:01.996Z,10.80
2019-05-03T01:05:33.139Z,10.90
2019-05-03T01:08:03.874Z,10.80
2019-05-03T01:10:34.533Z,11.00
2019-05-03T01:13:05.212Z,11.10
2019-05-03T01:15:40.172Z,11.10
2019-05-03T01:18:12.746Z,11.20
2019-05-03T01:20:43.063Z,11.30
2019-05-03T01:23:13.371Z,11.10
2019-05-03T01:25:43.731Z,11.10
2019-05-03T01:28:14.033Z,11.10
2019-05-03T01:30:44.312Z,11.00
2019-05-03T01:33:14.627Z,11.10
2019-05-03T01:35:44.932Z,11.20
2019-05-03T01:38:15.223Z,11.30
2019-05-03T01:40:45.439Z,11.20
2019-05-03T01:43:15.845Z,11.30
2019-05-03T01:45:46.052Z,11.20
2019-05-03T01:48:34.135Z,11.20
2019-05-03T01:51:05.983Z,11.20
2019-05-03T01:53:37.852Z,11.10
2019-05-03T01:56:08.070Z,11.10
2019-05-03T01:58:38.303Z,10.90
2019-05-03T02:01:21.989Z,11.00
2019-05-03T02:03:59.492Z,11.00
2019-05-03T02:06:31.838Z,10.90
2019-05-03T02:09:02.219Z,11.00
2019-05-03T02:11:34.087Z,10.70
2019-05-03T02:14:05.232Z,10.80
2019-05-03T02:16:35.457Z,10.90
2019-05-03T02:19:05.755Z,11.00
2019-05-03T02:21:35.968Z,10.90
2019-05-03T02:24:06.296Z,11.00
2019-05-03T02:26:36.588Z,11.00
2019-05-03T02:29:06.905Z,11.00
2019-05-03T02:31:38.471Z,11.20
2019-05-03T02:34:08.771Z,11.20
2019-05-03T02:36:39.052Z,11.20
2019-05-03T02:39:13.355Z,11.20
2019-05-03T02:41:47.884Z,11.10
2019-05-03T02:44:16.443Z,11.00
2019-05-03T02:46:51.904Z,10.90
2019-05-03T02:49:27.817Z,10.90
2019-05-03T02:51:58.117Z,10.80
2019-05-03T02:54:28.411Z,10.70
2019-05-03T02:56:58.761Z,10.60
2019-05-03T02:59:29.354Z,10.60
2019-05-03T03:01:59.452Z,10.50
2019-05-03T03:04:29.761Z,10.50
2019-05-03T03:07:00.043Z,10.40
2019-05-03T03:09:30.349Z,10.40
2019-05-03T03:15:45.897Z,10.40
2019-05-03T03:18:16.198Z,10.40
2019-05-03T03:20:46.423Z,10.20
2019-05-03T03:23:18.019Z,10.20
2019-05-03T03:25:48.882Z,10.30
2019-05-03T03:28:19.169Z,10.30
2019-05-03T03:31:01.501Z,10.00
2019-05-03T03:33:31.881Z,10.10
2019-05-03T03:36:31.557Z,10.00
2019-05-03T03:38:35.510Z,10.10
2019-05-03T03:41:06.164Z,10.20
2019-05-03T03:43:36.977Z,10.10
2019-05-03T03:46:07.277Z,10.10
2019-05-03T03:48:37.628Z,10.10
2019-05-03T03:51:07.863Z,10.10
2019-05-03T03:53:38.073Z,9.90
2019-05-03T03:56:09.260Z,9.90
2019-05-03T03:58:39.559Z,10.00
2019-05-03T04:01:10.445Z,9.90
2019-05-03T04:03:40.750Z,10.00
2019-05-03T04:06:11.023Z,9.90
2019-05-03T04:08:41.353Z,9.90
2019-05-03T04:11:11.775Z,10.00
2019-05-03T04:13:45.222Z,9.90
2019-05-03T04:16:36.581Z,10.10
2019-05-03T04:19:25.177Z,10.00
2019-05-03T04:21:56.189Z,10.10
2019-05-03T04:24:26.189Z,10.10
2019-05-03T04:27:15.532Z,10.30
2019-05-03T04:29:38.243Z,10.30
2019-05-03T04:32:09.398Z,10.20
2019-05-03T04:34:39.740Z,10.40
2019-05-03T04:37:10.008Z,10.60
2019-05-03T04:39:40.347Z,10.60
2019-05-03T04:42:10.606Z,10.50
2019-05-03T04:44:40.983Z,10.60
2019-05-03T04:47:11.207Z,10.60
2019-05-03T04:49:41.524Z,10.60
2019-05-03T04:52:11.828Z,10.50
2019-05-03T04:54:45.135Z,10.40
2019-05-03T04:57:21.143Z,10.50
2019-05-03T04:59:47.493Z,10.50
2019-05-03T05:02:17.747Z,10.50
2019-05-03T05:04:48.003Z,10.50
2019-05-03T05:07:18.191Z,10.70
2019-05-03T05:09:48.395Z,11.00
2019-05-03T05:12:18.580Z,11.40
2019-05-03T05:14:50.451Z,12.10
2019-05-03T05:17:22.268Z,13.30
2019-05-03T05:19:59.838Z,15.20
2019-05-03T05:22:35.042Z,17.20
2019-05-03T05:25:08.057Z,19.00
2019-05-03T05:27:59.213Z,20.30
2019-05-03T05:30:30.004Z,21.60
2019-05-03T05:33:00.287Z,22.80
2019-05-03T05:35:30.483Z,23.60
2019-05-03T05:38:00.719Z,23.80
2019-05-03T05:40:30.988Z,24.00
2019-05-03T05:43:01.288Z,24.10
2019-05-03T05:45:31.558Z,23.20
2019-05-03T05:48:07.212Z,22.00
2019-05-03T05:50:39.059Z,21.00
2019-05-03T05:53:09.274Z,19.80
2019-05-03T05:55:41.126Z,19.50
2019-05-03T05:58:16.724Z,18.90
2019-05-03T06:00:49.440Z,18.50
2019-05-03T06:03:19.674Z,18.30
2019-05-03T06:05:50.271Z,18.30
2019-05-03T06:08:29.338Z,18.80
2019-05-03T06:11:14.891Z,19.40
2019-05-03T06:13:54.508Z,20.30
2019-05-03T06:16:32.402Z,21.10
2019-05-03T06:19:06.819Z,21.70
2019-05-03T06:21:38.632Z,22.20
2019-05-03T06:24:14.807Z,22.90
2019-05-03T06:26:50.736Z,23.20
2019-05-03T06:29:21.081Z,23.40
2019-05-03T06:31:55.061Z,24.30
2019-05-03T06:34:26.362Z,25.10
2019-05-03T06:36:58.182Z,25.70
2019-05-03T06:39:28.578Z,26.70
2019-05-03T06:41:58.846Z,27.60
2019-05-03T06:44:29.158Z,28.30
2019-05-03T06:47:01.051Z,29.10
2019-05-03T06:49:31.270Z,30.20
2019-05-03T06:52:01.514Z,31.60
2019-05-03T06:54:31.807Z,31.90
2019-05-03T06:57:07.828Z,30.90
2019-05-03T06:59:41.496Z,30.20
2019-05-03T07:05:21.030Z,26.50
2019-05-03T07:07:55.787Z,24.60
2019-05-03T07:10:28.122Z,23.40
2019-05-03T07:12:59.533Z,22.20
2019-05-03T07:15:29.062Z,21.10
2019-05-03T07:17:59.055Z,20.70
2019-05-03T07:20:31.142Z,20.70
2019-05-03T07:23:01.348Z,20.40
2019-05-03T07:25:31.827Z,20.70
2019-05-03T07:28:02.135Z,21.10
2019-05-03T07:30:35.111Z,21.20
2019-05-03T07:33:06.473Z,20.80
2019-05-03T07:35:36.668Z,20.70
2019-05-03T07:38:06.866Z,21.00
2019-05-03T07:40:37.065Z,21.30
2019-05-03T07:43:07.262Z,22.10
2019-05-03T07:45:37.447Z,22.10
2019-05-03T07:48:07.748Z,21.60
2019-05-03T07:50:37.947Z,19.90
2019-05-03T07:53:08.155Z,19.40
2019-05-03T07:55:57.415Z,20.00
2019-05-03T07:58:29.259Z,20.50
2019-05-03T08:01:08.794Z,21.30
2019-05-03T08:03:34.843Z,22.60
2019-05-03T08:06:05.494Z,24.90
2019-05-03T08:08:35.711Z,26.70
2019-05-03T08:11:05.903Z,26.40
2019-05-03T08:13:36.115Z,26.10
2019-05-03T08:16:06.706Z,26.00
2019-05-03T08:18:37.359Z,26.50
2019-05-03T08:21:07.559Z,26.60
2019-05-03T08:23:37.849Z,26.10
2019-05-03T08:26:08.065Z,25.30
2019-05-03T08:28:38.248Z,24.60
2019-05-03T08:31:26.626Z,24.20
2019-05-03T08:34:04.969Z,23.80
2019-05-03T08:36:37.059Z,23.80
2019-05-03T08:39:07.634Z,23.70
2019-05-03T08:41:39.448Z,23.50
2019-05-03T08:44:09.663Z,22.60
2019-05-03T08:46:39.848Z,22.50
2019-05-03T08:49:10.056Z,22.30
2019-05-03T08:51:40.302Z,21.50
2019-05-03T08:54:10.541Z,21.40
2019-05-03T08:56:40.954Z,21.40
2019-05-03T08:59:11.155Z,21.50
2019-05-03T09:01:41.413Z,21.60
2019-05-03T09:04:12.927Z,21.60
2019-05-03T09:06:44.638Z,21.50
2019-05-03T09:09:16.756Z,21.50
2019-05-03T09:11:47.163Z,21.80
2019-05-03T09:14:17.842Z,22.00
2019-05-03T09:16:48.087Z,22.80
2019-05-03T09:19:19.588Z,23.50
2019-05-03T09:21:49.769Z,24.70
2019-05-03T09:24:20.208Z,25.20
2019-05-03T09:26:50.383Z,24.40
2019-05-03T09:29:20.759Z,23.70
2019-05-03T09:31:51.009Z,22.60
2019-05-03T09:34:21.207Z,21.70
2019-05-03T09:36:51.386Z,20.70
2019-05-03T09:39:21.618Z,20.60
2019-05-03T09:41:55.499Z,20.90
2019-05-03T09:44:25.890Z,20.90
2019-05-03T09:46:56.090Z,20.80
2019-05-03T09:49:26.297Z,20.60
2019-05-03T09:51:56.487Z,20.40
2019-05-03T09:54:28.479Z,20.30
2019-05-03T09:57:01.876Z,20.20
2019-05-03T09:59:32.092Z,20.00
2019-05-03T10:02:04.842Z,19.90
2019-05-03T10:04:37.020Z,19.40
2019-05-03T10:07:07.201Z,19.00
2019-05-03T10:09:37.404Z,18.70
2019-05-03T10:12:09.992Z,18.50
2019-05-03T10:14:40.223Z,18.10
2019-05-03T10:17:17.641Z,18.10
2019-05-03T10:19:47.839Z,18.10
2019-05-03T10:22:20.013Z,18.60
2019-05-03T10:24:50.215Z,19.30
2019-05-03T10:27:20.535Z,19.70
2019-05-03T10:29:50.786Z,19.90
2019-05-03T10:32:22.776Z,19.60
2019-05-03T10:35:05.702Z,19.30
2019-05-03T10:37:36.015Z,19.00
2019-05-03T10:40:08.139Z,18.30
2019-05-03T10:42:38.399Z,18.10
2019-05-03T10:45:08.607Z,18.40
2019-05-03T10:47:38.786Z,18.70
2019-05-03T10:50:08.991Z,20.50
2019-05-03T10:52:41.370Z,22.40
2019-05-03T10:55:11.568Z,23.60
2019-05-03T10:57:47.529Z,23.90
2019-05-03T11:00:44.289Z,23.50
2019-05-03T11:02:56.145Z,22.80
2019-05-03T11:05:26.347Z,22.30
2019-05-03T11:07:56.535Z,21.80
2019-05-03T11:10:26.749Z,20.80
2019-05-03T11:12:56.918Z,20.20
2019-05-03T11:15:27.236Z,19.80
2019-05-03T11:17:57.542Z,19.80
2019-05-03T11:20:37.140Z,19.70
2019-05-03T11:23:07.900Z,19.60
2019-05-03T11:25:38.231Z,19.70
2019-05-03T11:28:10.775Z,20.20
2019-05-03T11:30:52.189Z,20.40
2019-05-03T11:33:15.245Z,20.40
2019-05-03T11:35:55.122Z,20.20
2019-05-03T11:38:26.589Z,20.40
2019-05-03T11:40:56.814Z,20.60
2019-05-03T11:43:27.011Z,20.30
2019-05-03T11:45:57.240Z,20.10
2019-05-03T11:48:27.506Z,19.70
2019-05-03T11:50:57.723Z,19.20
2019-05-03T11:53:27.902Z,18.90
2019-05-03T11:55:58.164Z,18.50
2019-05-03T11:58:28.391Z,18.10
2019-05-03T12:01:15.742Z,17.80
2019-05-03T12:03:40.661Z,17.90
2019-05-03T12:06:11.921Z,17.90
2019-05-03T12:08:42.185Z,17.80
2019-05-03T12:11:12.530Z,17.70
2019-05-03T12:13:42.749Z,17.50
2019-05-03T12:16:19.686Z,17.60
2019-05-03T12:18:52.555Z,17.90
2019-05-03T12:21:18.450Z,18.10
2019-05-03T12:23:50.380Z,18.20
2019-05-03T12:26:21.129Z,18.40
2019-05-03T12:28:51.881Z,18.10
2019-05-03T12:31:31.783Z,18.20
2019-05-03T12:33:55.079Z,18.70
2019-05-03T12:36:26.538Z,19.00
2019-05-03T12:38:56.815Z,18.80
2019-05-03T12:41:27.076Z,19.00
2019-05-03T12:43:57.276Z,19.60
2019-05-03T12:46:45.878Z,19.90
2019-05-03T12:49:16.147Z,20.30
2019-05-03T12:51:47.299Z,20.80
2019-05-03T12:54:17.526Z,20.80
2019-05-03T12:56:47.714Z,20.40
2019-05-03T12:59:22.395Z,20.80
2019-05-03T13:01:58.243Z,21.50
2019-05-03T13:04:30.108Z,22.10
2019-05-03T13:07:05.517Z,22.90
2019-05-03T13:09:36.875Z,22.80
2019-05-03T13:12:08.738Z,21.90
2019-05-03T13:14:38.948Z,20.80
2019-05-03T13:17:11.289Z,20.20
2019-05-03T13:19:41.238Z,19.70
2019-05-03T13:22:11.500Z,19.20
2019-05-03T13:24:41.746Z,18.90
2019-05-03T13:27:11.969Z,18.50
2019-05-03T13:29:42.257Z,18.00
2019-05-03T13:32:12.559Z,17.50
2019-05-03T13:34:44.573Z,17.20
2019-05-03T13:37:15.017Z,16.70
2019-05-03T13:39:45.872Z,16.40
2019-05-03T13:42:16.061Z,16.30
2019-05-03T13:44:46.286Z,16.50
2019-05-03T13:47:35.056Z,16.70
2019-05-03T13:50:06.505Z,16.80
2019-05-03T13:52:36.692Z,16.80
2019-05-03T13:55:07.870Z,16.90
2019-05-03T13:57:38.123Z,17.10
2019-05-03T14:00:08.404Z,17.40
2019-05-03T14:02:38.696Z,17.90
2019-05-03T14:05:08.962Z,18.10
2019-05-03T14:07:39.139Z,18.40
2019-05-03T14:10:09.349Z,18.60
2019-05-03T14:12:39.606Z,18.90
2019-05-03T14:15:45.190Z,18.60
2019-05-03T14:18:15.493Z,18.30
2019-05-03T14:20:59.449Z,18.10
2019-05-03T14:23:29.634Z,17.50
2019-05-03T14:25:59.839Z,17.50
2019-05-03T14:28:30.021Z,17.30
2019-05-03T14:31:00.303Z,17.30
2019-05-03T14:33:30.482Z,17.50
2019-05-03T14:36:00.686Z,17.50
2019-05-03T14:38:30.872Z,17.50
2019-05-03T14:41:01.152Z,17.20
2019-05-03T14:43:31.411Z,16.90
2019-05-03T14:46:01.660Z,16.60
2019-05-03T14:48:31.987Z,16.60
2019-05-03T14:51:02.259Z,16.60
2019-05-03T14:53:34.646Z,16.30
2019-05-03T14:56:08.782Z,16.20
2019-05-03T14:58:42.114Z,16.20
2019-05-03T15:01:16.699Z,16.10
2019-05-03T15:03:47.102Z,15.80
2019-05-03T15:06:17.377Z,15.60
2019-05-03T15:08:47.554Z,15.70
2019-05-03T15:11:17.797Z,15.60
2019-05-03T15:13:48.143Z,15.60
2019-05-03T15:16:18.488Z,15.70
2019-05-03T15:18:48.684Z,15.70
2019-05-03T15:21:18.907Z,15.50
2019-05-03T15:23:49.238Z,15.30
2019-05-03T15:26:19.440Z,15.10
2019-05-03T15:28:49.627Z,14.90
2019-05-03T15:31:20.039Z,14.90
2019-05-03T15:33:50.296Z,14.90
2019-05-03T15:36:20.515Z,14.80
2019-05-03T15:38:50.779Z,14.90
2019-05-03T15:41:20.986Z,14.80
2019-05-03T15:44:09.746Z,14.90
2019-05-03T15:46:56.668Z,14.90
2019-05-03T15:49:27.720Z,14.80
2019-05-03T15:51:59.074Z,14.50
2019-05-03T15:54:29.339Z,14.40
2019-05-03T15:56:59.554Z,14.10
2019-05-03T15:59:29.768Z,14.00
2019-05-03T16:02:00.023Z,14.10
2019-05-03T16:04:30.215Z,13.90
2019-05-03T16:07:00.522Z,13.80
2019-05-03T16:09:30.706Z,13.70
2019-05-03T16:12:00.986Z,13.80
2019-05-03T16:14:31.167Z,14.00
2019-05-03T16:17:07.568Z,14.00
2019-05-03T16:19:55.602Z,14.10
2019-05-03T16:22:25.313Z,13.90
2019-05-03T16:24:55.808Z,14.00
2019-05-03T16:27:30.528Z,14.10
2019-05-03T16:30:00.964Z,14.40
2019-05-03T16:32:34.692Z,14.40
2019-05-03T16:35:05.964Z,14.60
2019-05-03T16:37:35.563Z,14.80
2019-05-03T16:40:06.551Z,15.00
2019-05-03T16:42:36.779Z,15.00
2019-05-03T16:45:07.307Z,14.90
2019-05-03T16:47:37.680Z,15.00
2019-05-03T16:50:08.239Z,14.90
2019-05-03T16:52:38.766Z,15.00
2019-05-03T16:55:09.225Z,14.80
2019-05-03T16:57:39.495Z,14.70
2019-05-03T17:00:17.815Z,14.70
2019-05-03T17:03:06.070Z,14.40
2019-05-03T17:05:56.267Z,14.70
2019-05-03T17:08:28.106Z,14.70
2019-05-03T17:10:59.966Z,14.70
2019-05-03T17:13:30.235Z,14.60
2019-05-03T17:16:00.559Z,14.70
2019-05-03T17:18:31.007Z,14.70
2019-05-03T17:21:03.780Z,14.50
2019-05-03T17:23:35.302Z,14.50
2019-05-03T17:26:05.962Z,14.50
2019-05-03T17:28:36.289Z,14.30
2019-05-03T17:31:07.078Z,14.50
2019-05-03T17:33:37.311Z,14.40
2019-05-03T17:36:09.200Z,14.00
2019-05-03T17:38:39.497Z,14.00
2019-05-03T17:41:11.358Z,14.00
2019-05-03T17:43:54.472Z,13.90
2019-05-03T17:46:25.485Z,13.90
2019-05-03T17:48:55.462Z,14.00
2019-05-03T17:51:45.754Z,14.20
2019-05-03T17:54:26.231Z,14.20
2019-05-03T17:57:01.343Z,14.10
2019-05-03T17:59:34.943Z,14.10
2019-05-03T18:02:07.153Z,14.00
2019-05-03T18:04:39.464Z,13.30
2019-05-03T18:07:14.971Z,13.50
2019-05-03T18:09:47.015Z,13.50
2019-05-03T18:12:19.811Z,13.20
2019-05-03T18:14:50.083Z,13.20
2019-05-03T18:17:20.369Z,13.20
2019-05-03T18:19:50.986Z,12.80
2019-05-03T18:22:21.213Z,13.00
2019-05-03T18:24:51.902Z,13.00
2019-05-03T18:27:22.049Z,13.00
2019-05-03T18:29:52.434Z,12.90
2019-05-03T18:32:22.709Z,12.70
2019-05-03T18:34:54.457Z,12.60
2019-05-03T18:37:25.240Z,12.40
2019-05-03T18:39:55.682Z,12.20
2019-05-03T18:42:27.774Z,12.20
2019-05-03T18:44:59.817Z,12.10
2019-05-03T18:47:29.998Z,12.00
2019-05-03T18:50:00.750Z,11.80
2019-05-03T18:52:30.987Z,11.90
2019-05-03T18:55:01.219Z,12.00
2019-05-03T18:57:33.107Z,12.00
2019-05-03T19:00:08.099Z,11.80
2019-05-03T19:02:37.943Z,11.80
2019-05-03T19:05:08.334Z,11.60
2019-05-03T19:07:56.651Z,11.60
2019-05-03T19:10:40.677Z,11.50
2019-05-03T19:13:14.955Z,11.40
2019-05-03T19:15:45.668Z,11.50
2019-05-03T19:18:26.503Z,11.40
2019-05-03T19:20:56.891Z,11.40
2019-05-03T19:23:27.267Z,11.40
2019-05-03T19:25:57.531Z,11.30
2019-05-03T19:28:27.733Z,11.40
2019-05-03T19:30:58.012Z,11.40
2019-05-03T19:33:28.274Z,11.40
2019-05-03T19:36:00.260Z,11.40
2019-05-03T19:38:30.392Z,11.50
2019-05-03T19:41:00.794Z,11.50
2019-05-03T19:43:31.001Z,11.40
2019-05-03T19:46:01.215Z,11.30
2019-05-03T19:48:54.641Z,11.40
2019-05-03T19:51:24.922Z,11.40
2019-05-03T19:53:56.148Z,11.30
2019-05-03T19:56:25.895Z,11.20
2019-05-03T19:58:57.680Z,11.00
2019-05-03T20:01:46.623Z,11.10
2019-05-03T20:04:18.476Z,10.80
2019-05-03T20:06:56.628Z,10.70
2019-05-03T20:09:27.912Z,10.60
2019-05-03T20:12:00.910Z,10.60
2019-05-03T20:14:31.139Z,10.40
2019-05-03T20:17:04.064Z,10.40
2019-05-03T20:19:34.690Z,10.50
2019-05-03T20:22:05.819Z,10.40
2019-05-03T20:24:36.211Z,10.40
2019-05-03T20:27:06.387Z,10.50
2019-05-03T20:29:36.588Z,10.30
2019-05-03T20:32:06.794Z,10.00
2019-05-03T20:34:37.066Z,10.10
2019-05-03T20:37:07.263Z,10.10
2019-05-03T20:39:37.475Z,10.10
2019-05-03T20:42:07.669Z,10.10
2019-05-03T20:44:42.562Z,10.30
2019-05-03T20:47:17.686Z,10.20
2019-05-03T20:49:49.607Z,10.30
2019-05-03T20:52:19.783Z,10.30
2019-05-03T20:54:50.000Z,10.30
2019-05-03T20:57:20.220Z,10.30
2019-05-03T20:59:52.039Z,10.30
2019-05-03T21:02:22.392Z,10.20
2019-05-03T21:04:52.627Z,10.20
2019-05-03T21:07:23.209Z,10.30
2019-05-03T21:09:54.743Z,10.20
2019-05-03T21:12:25.294Z,10.20
2019-05-03T21:14:55.700Z,10.10
2019-05-03T21:17:27.839Z,10.00
2019-05-03T21:19:59.752Z,10.10
2019-05-03T21:22:31.635Z,10.10
2019-05-03T21:25:10.136Z,10.20
2019-05-03T21:27:40.311Z,10.20
2019-05-03T21:30:10.549Z,10.20
2019-05-03T21:32:40.794Z,10.20
2019-05-03T21:35:11.171Z,10.20
2019-05-03T21:37:41.591Z,10.00
2019-05-03T21:40:11.810Z,10.10
2019-05-03T21:42:42.005Z,10.00
2019-05-03T21:45:15.087Z,10.00
2019-05-03T21:47:47.888Z,9.60
2019-05-03T21:50:19.781Z,9.80
2019-05-03T21:52:49.959Z,9.90
2019-05-03T21:55:20.158Z,10.00
2019-05-03T21:57:50.418Z,10.00
2019-05-03T22:00:20.687Z,10.00
2019-05-03T22:02:52.555Z,9.90
2019-05-03T22:05:23.046Z,10.00
2019-05-03T22:07:54.955Z,9.70
2019-05-03T22:10:26.348Z,9.90
2019-05-03T22:12:56.528Z,9.90
2019-05-03T22:15:46.772Z,10.10
2019-05-03T22:18:21.900Z,10.00
2019-05-03T22:21:09.416Z,9.90
2019-05-03T22:23:45.181Z,9.90
2019-05-03T22:26:15.462Z,10.00
2019-05-03T22:28:45.812Z,9.90
2019-05-03T22:31:16.022Z,9.80
2019-05-03T22:33:46.387Z,9.90
2019-05-03T22:36:16.786Z,10.00
2019-05-03T22:38:46.971Z,9.90
2019-05-03T22:41:17.206Z,10.00
2019-05-03T22:43:47.391Z,10.00
2019-05-03T22:46:17.612Z,9.90
2019-05-03T22:48:47.846Z,9.90
2019-05-03T22:51:18.049Z,9.80
2019-05-03T22:53:48.223Z,9.70
2019-05-03T22:56:19.437Z,9.80
2019-05-03T22:58:49.609Z,9.90
2019-05-03T23:01:19.819Z,9.90
2019-05-03T23:03:50.011Z,9.90
2019-05-03T23:06:22.638Z,9.80
2019-05-03T23:08:52.099Z,9.80
2019-05-03T23:11:24.418Z,9.60
2019-05-03T23:14:04.994Z,9.80
2019-05-03T23:16:35.694Z,9.60
2019-05-03T23:19:07.064Z,9.50
2019-05-03T23:21:39.870Z,9.40
2019-05-03T23:24:10.065Z,9.40
2019-05-03T23:26:40.271Z,9.50
2019-05-03T23:29:10.476Z,9.50
2019-05-03T23:31:40.642Z,9.60
2019-05-03T23:34:10.852Z,9.70
2019-05-03T23:36:41.341Z,9.70
2019-05-03T23:39:11.571Z,9.80
2019-05-03T23:41:41.755Z,9.70
2019-05-03T23:44:15.057Z,9.70
2019-05-03T23:47:05.051Z,9.60
2019-05-03T23:49:35.286Z,9.60
2019-05-03T23:52:25.819Z,9.40
2019-05-03T23:54:57.632Z,9.40
2019-05-03T23:57:28.899Z,9.30
2019-05-03T23:59:59.072Z,9.30
